sensor_id;sensor_type;location;lat;lon;timestamp;temperature;humidity
39045;DHT22;52192;52.002;5.956;2023-01-13T00:01:49;12.00;82.80
39045;DHT22;52192;52.002;5.956;2023-01-13T00:04:15;12.00;82.40
39045;DHT22;52192;52.002;5.956;2023-01-13T00:06:41;11.90;79.90
39045;DHT22;52192;52.002;5.956;2023-01-13T00:09:06;11.90;80.50
39045;DHT22;52192;52.002;5.956;2023-01-13T00:11:32;11.90;80.30
39045;DHT22;52192;52.002;5.956;2023-01-13T00:13:58;11.80;79.30
39045;DHT22;52192;52.002;5.956;2023-01-13T00:16:23;11.80;79.50
39045;DHT22;52192;52.002;5.956;2023-01-13T00:18:49;11.80;79.50
39045;DHT22;52192;52.002;5.956;2023-01-13T00:21:19;11.70;79.10
39045;DHT22;52192;52.002;5.956;2023-01-13T00:23:46;11.70;79.10
39045;DHT22;52192;52.002;5.956;2023-01-13T00:26:18;11.60;77.80
39045;DHT22;52192;52.002;5.956;2023-01-13T00:28:45;11.50;78.50
39045;DHT22;52192;52.002;5.956;2023-01-13T00:31:16;11.50;78.50
39045;DHT22;52192;52.002;5.956;2023-01-13T00:33:41;11.50;78.10
39045;DHT22;52192;52.002;5.956;2023-01-13T00:36:11;11.40;78.20
39045;DHT22;52192;52.002;5.956;2023-01-13T00:38:38;11.40;78.10
39045;DHT22;52192;52.002;5.956;2023-01-13T00:41:06;11.30;78.60
39045;DHT22;52192;52.002;5.956;2023-01-13T00:43:33;11.30;78.30
39045;DHT22;52192;52.002;5.956;2023-01-13T00:46:04;11.20;78.40
39045;DHT22;52192;52.002;5.956;2023-01-13T00:48:30;11.20;78.70
39045;DHT22;52192;52.002;5.956;2023-01-13T00:51:01;11.20;78.70
39045;DHT22;52192;52.002;5.956;2023-01-13T00:53:31;11.20;79.00
39045;DHT22;52192;52.002;5.956;2023-01-13T00:56:06;11.20;79.40
39045;DHT22;52192;52.002;5.956;2023-01-13T00:58:33;11.20;79.20
39045;DHT22;52192;52.002;5.956;2023-01-13T01:01:04;11.10;79.10
39045;DHT22;52192;52.002;5.956;2023-01-13T01:03:30;11.10;79.50
39045;DHT22;52192;52.002;5.956;2023-01-13T01:05:57;11.00;79.60
39045;DHT22;52192;52.002;5.956;2023-01-13T01:08:27;11.00;79.70
39045;DHT22;52192;52.002;5.956;2023-01-13T01:11:04;11.00;80.00
39045;DHT22;52192;52.002;5.956;2023-01-13T01:13:30;11.00;80.00
39045;DHT22;52192;52.002;5.956;2023-01-13T01:15:55;10.90;80.10
39045;DHT22;52192;52.002;5.956;2023-01-13T01:18:21;10.90;80.10
39045;DHT22;52192;52.002;5.956;2023-01-13T01:20:47;10.90;80.20
39045;DHT22;52192;52.002;5.956;2023-01-13T01:23:12;10.90;80.00
39045;DHT22;52192;52.002;5.956;2023-01-13T01:25:38;10.90;79.80
39045;DHT22;52192;52.002;5.956;2023-01-13T01:28:04;10.90;79.50
39045;DHT22;52192;52.002;5.956;2023-01-13T01:30:29;10.90;79.70
39045;DHT22;52192;52.002;5.956;2023-01-13T01:32:55;10.90;79.20
39045;DHT22;52192;52.002;5.956;2023-01-13T01:35:22;10.90;78.80
39045;DHT22;52192;52.002;5.956;2023-01-13T01:37:49;10.90;78.90
39045;DHT22;52192;52.002;5.956;2023-01-13T01:40:15;10.90;79.00
39045;DHT22;52192;52.002;5.956;2023-01-13T01:42:40;10.90;79.00
39045;DHT22;52192;52.002;5.956;2023-01-13T01:45:27;11.00;78.80
39045;DHT22;52192;52.002;5.956;2023-01-13T01:48:01;10.90;78.80
39045;DHT22;52192;52.002;5.956;2023-01-13T01:50:28;10.90;78.50
39045;DHT22;52192;52.002;5.956;2023-01-13T01:53:15;10.90;78.50
39045;DHT22;52192;52.002;5.956;2023-01-13T01:55:42;10.90;78.50
39045;DHT22;52192;52.002;5.956;2023-01-13T01:58:09;10.80;78.70
39045;DHT22;52192;52.002;5.956;2023-01-13T02:00:36;10.80;78.60
39045;DHT22;52192;52.002;5.956;2023-01-13T02:03:02;10.80;78.90
39045;DHT22;52192;52.002;5.956;2023-01-13T02:05:29;10.70;78.90
39045;DHT22;52192;52.002;5.956;2023-01-13T02:07:56;10.70;79.00
39045;DHT22;52192;52.002;5.956;2023-01-13T02:10:25;10.60;79.00
39045;DHT22;52192;52.002;5.956;2023-01-13T02:12:53;10.60;79.00
39045;DHT22;52192;52.002;5.956;2023-01-13T02:35:10;10.50;79.40
39045;DHT22;52192;52.002;5.956;2023-01-13T02:37:40;10.50;79.60
39045;DHT22;52192;52.002;5.956;2023-01-13T02:43:19;10.50;79.30
39045;DHT22;52192;52.002;5.956;2023-01-13T02:46:14;10.50;79.30
39045;DHT22;52192;52.002;5.956;2023-01-13T02:48:44;10.40;79.50
39045;DHT22;52192;52.002;5.956;2023-01-13T02:51:17;10.50;79.40
39045;DHT22;52192;52.002;5.956;2023-01-13T02:53:52;10.40;79.40
39045;DHT22;52192;52.002;5.956;2023-01-13T02:56:20;10.40;79.30
39045;DHT22;52192;52.002;5.956;2023-01-13T02:58:48;10.40;79.10
39045;DHT22;52192;52.002;5.956;2023-01-13T03:01:15;10.50;78.80
39045;DHT22;52192;52.002;5.956;2023-01-13T03:03:41;10.50;78.80
39045;DHT22;52192;52.002;5.956;2023-01-13T03:11:49;10.40;78.40
39045;DHT22;52192;52.002;5.956;2023-01-13T03:16:50;10.40;78.40
39045;DHT22;52192;52.002;5.956;2023-01-13T03:24:56;10.50;77.70
39045;DHT22;52192;52.002;5.956;2023-01-13T03:29:55;10.60;77.60
39045;DHT22;52192;52.002;5.956;2023-01-13T03:34:58;10.60;76.80
39045;DHT22;52192;52.002;5.956;2023-01-13T03:37:35;10.60;76.50
39045;DHT22;52192;52.002;5.956;2023-01-13T03:40:13;10.60;76.80
39045;DHT22;52192;52.002;5.956;2023-01-13T03:42:41;10.60;76.40
39045;DHT22;52192;52.002;5.956;2023-01-13T03:45:30;10.60;76.00
39045;DHT22;52192;52.002;5.956;2023-01-13T03:47:59;10.60;76.20
39045;DHT22;52192;52.002;5.956;2023-01-13T03:50:32;10.60;76.40
39045;DHT22;52192;52.002;5.956;2023-01-13T03:53:04;10.60;76.60
39045;DHT22;52192;52.002;5.956;2023-01-13T03:55:38;10.50;76.60
39045;DHT22;52192;52.002;5.956;2023-01-13T03:58:40;10.50;76.70
39045;DHT22;52192;52.002;5.956;2023-01-13T04:01:10;10.50;76.70
39045;DHT22;52192;52.002;5.956;2023-01-13T04:03:48;10.60;76.90
39045;DHT22;52192;52.002;5.956;2023-01-13T04:09:02;10.60;76.80
39045;DHT22;52192;52.002;5.956;2023-01-13T04:11:54;10.60;76.70
39045;DHT22;52192;52.002;5.956;2023-01-13T04:14:22;10.60;76.60
39045;DHT22;52192;52.002;5.956;2023-01-13T04:16:49;10.60;76.80
39045;DHT22;52192;52.002;5.956;2023-01-13T04:19:14;10.60;76.90
39045;DHT22;52192;52.002;5.956;2023-01-13T04:21:40;10.60;77.00
39045;DHT22;52192;52.002;5.956;2023-01-13T04:24:07;10.50;77.10
39045;DHT22;52192;52.002;5.956;2023-01-13T04:26:33;10.50;77.20
39045;DHT22;52192;52.002;5.956;2023-01-13T04:28:58;10.50;77.20
39045;DHT22;52192;52.002;5.956;2023-01-13T04:31:24;10.40;77.30
39045;DHT22;52192;52.002;5.956;2023-01-13T04:33:50;10.40;77.30
39045;DHT22;52192;52.002;5.956;2023-01-13T04:36:15;10.40;77.30
39045;DHT22;52192;52.002;5.956;2023-01-13T04:38:41;10.40;77.10
39045;DHT22;52192;52.002;5.956;2023-01-13T04:41:07;10.30;77.00
39045;DHT22;52192;52.002;5.956;2023-01-13T04:43:32;10.30;76.90
39045;DHT22;52192;52.002;5.956;2023-01-13T04:45:58;10.30;76.50
39045;DHT22;52192;52.002;5.956;2023-01-13T04:48:24;10.30;76.60
39045;DHT22;52192;52.002;5.956;2023-01-13T04:50:49;10.20;76.00
39045;DHT22;52192;52.002;5.956;2023-01-13T04:53:15;10.30;75.70
39045;DHT22;52192;52.002;5.956;2023-01-13T04:55:41;10.30;75.40
39045;DHT22;52192;52.002;5.956;2023-01-13T04:58:09;10.20;75.00
39045;DHT22;52192;52.002;5.956;2023-01-13T05:00:36;10.20;74.60
39045;DHT22;52192;52.002;5.956;2023-01-13T05:03:03;10.20;74.20
39045;DHT22;52192;52.002;5.956;2023-01-13T05:05:29;10.20;73.80
39045;DHT22;52192;52.002;5.956;2023-01-13T05:07:55;10.10;73.00
39045;DHT22;52192;52.002;5.956;2023-01-13T05:10:21;10.20;72.80
39045;DHT22;52192;52.002;5.956;2023-01-13T05:12:47;10.10;72.70
39045;DHT22;52192;52.002;5.956;2023-01-13T05:15:32;10.20;72.80
39045;DHT22;52192;52.002;5.956;2023-01-13T05:18:16;10.10;72.80
39045;DHT22;52192;52.002;5.956;2023-01-13T05:20:43;10.20;72.50
39045;DHT22;52192;52.002;5.956;2023-01-13T05:23:09;10.10;72.20
39045;DHT22;52192;52.002;5.956;2023-01-13T05:25:53;10.10;72.70
39045;DHT22;52192;52.002;5.956;2023-01-13T05:28:19;10.10;72.90
39045;DHT22;52192;52.002;5.956;2023-01-13T05:30:46;10.10;72.90
39045;DHT22;52192;52.002;5.956;2023-01-13T05:33:16;10.10;73.20
39045;DHT22;52192;52.002;5.956;2023-01-13T05:35:43;10.20;73.50
39045;DHT22;52192;52.002;5.956;2023-01-13T05:38:10;10.20;73.50
39045;DHT22;52192;52.002;5.956;2023-01-13T05:40:40;10.20;73.70
39045;DHT22;52192;52.002;5.956;2023-01-13T05:43:24;10.20;73.90
39045;DHT22;52192;52.002;5.956;2023-01-13T05:48:23;10.20;74.50
39045;DHT22;52192;52.002;5.956;2023-01-13T05:50:49;10.20;74.80
39045;DHT22;52192;52.002;5.956;2023-01-13T05:53:16;10.20;74.80
39045;DHT22;52192;52.002;5.956;2023-01-13T05:55:43;10.20;75.00
39045;DHT22;52192;52.002;5.956;2023-01-13T05:58:11;10.30;75.90
39045;DHT22;52192;52.002;5.956;2023-01-13T06:00:37;10.30;75.60
39045;DHT22;52192;52.002;5.956;2023-01-13T06:03:03;10.30;75.80
39045;DHT22;52192;52.002;5.956;2023-01-13T06:05:29;10.20;76.00
39045;DHT22;52192;52.002;5.956;2023-01-13T06:07:56;10.20;76.10
39045;DHT22;52192;52.002;5.956;2023-01-13T06:10:23;10.10;76.00
39045;DHT22;52192;52.002;5.956;2023-01-13T06:12:49;10.10;76.00
39045;DHT22;52192;52.002;5.956;2023-01-13T06:15:14;10.10;76.20
39045;DHT22;52192;52.002;5.956;2023-01-13T06:17:40;10.00;76.20
39045;DHT22;52192;52.002;5.956;2023-01-13T06:20:06;10.10;76.20
39045;DHT22;52192;52.002;5.956;2023-01-13T06:22:37;10.00;76.10
39045;DHT22;52192;52.002;5.956;2023-01-13T06:25:10;10.00;76.00
39045;DHT22;52192;52.002;5.956;2023-01-13T06:27:37;10.00;76.10
39045;DHT22;52192;52.002;5.956;2023-01-13T06:30:03;10.00;76.80
39045;DHT22;52192;52.002;5.956;2023-01-13T06:32:32;9.90;76.20
39045;DHT22;52192;52.002;5.956;2023-01-13T06:35:04;10.00;76.20
39045;DHT22;52192;52.002;5.956;2023-01-13T06:37:32;10.00;76.40
39045;DHT22;52192;52.002;5.956;2023-01-13T06:40:00;9.90;76.40
39045;DHT22;52192;52.002;5.956;2023-01-13T06:42:29;9.90;76.50
39045;DHT22;52192;52.002;5.956;2023-01-13T06:45:16;9.90;76.60
39045;DHT22;52192;52.002;5.956;2023-01-13T06:47:42;9.80;76.60
39045;DHT22;52192;52.002;5.956;2023-01-13T06:50:09;9.90;76.80
39045;DHT22;52192;52.002;5.956;2023-01-13T06:52:35;9.80;76.70
39045;DHT22;52192;52.002;5.956;2023-01-13T06:55:01;9.80;76.70
39045;DHT22;52192;52.002;5.956;2023-01-13T06:57:27;9.80;76.80
39045;DHT22;52192;52.002;5.956;2023-01-13T06:59:53;9.80;76.80
39045;DHT22;52192;52.002;5.956;2023-01-13T07:02:18;9.90;76.70
39045;DHT22;52192;52.002;5.956;2023-01-13T07:04:44;9.90;76.80
39045;DHT22;52192;52.002;5.956;2023-01-13T07:07:11;9.90;76.70
39045;DHT22;52192;52.002;5.956;2023-01-13T07:09:38;9.90;76.30
39045;DHT22;52192;52.002;5.956;2023-01-13T07:12:03;9.90;76.50
39045;DHT22;52192;52.002;5.956;2023-01-13T07:14:29;9.90;76.60
39045;DHT22;52192;52.002;5.956;2023-01-13T07:17:13;9.90;76.70
39045;DHT22;52192;52.002;5.956;2023-01-13T07:19:39;9.90;76.70
39045;DHT22;52192;52.002;5.956;2023-01-13T07:22:05;9.90;76.50
39045;DHT22;52192;52.002;5.956;2023-01-13T07:24:30;9.90;76.40
39045;DHT22;52192;52.002;5.956;2023-01-13T07:26:56;10.00;76.20
39045;DHT22;52192;52.002;5.956;2023-01-13T07:29:22;10.00;76.10
39045;DHT22;52192;52.002;5.956;2023-01-13T07:31:48;10.00;76.10
39045;DHT22;52192;52.002;5.956;2023-01-13T07:34:13;10.00;76.00
39045;DHT22;52192;52.002;5.956;2023-01-13T07:36:39;10.00;75.90
39045;DHT22;52192;52.002;5.956;2023-01-13T07:39:05;10.00;75.80
39045;DHT22;52192;52.002;5.956;2023-01-13T07:41:31;10.00;75.40
39045;DHT22;52192;52.002;5.956;2023-01-13T07:44:15;10.10;76.10
39045;DHT22;52192;52.002;5.956;2023-01-13T07:46:41;10.00;75.10
39045;DHT22;52192;52.002;5.956;2023-01-13T07:49:07;10.00;75.20
39045;DHT22;52192;52.002;5.956;2023-01-13T07:51:37;10.00;75.20
39045;DHT22;52192;52.002;5.956;2023-01-13T07:54:04;9.90;75.30
39045;DHT22;52192;52.002;5.956;2023-01-13T07:56:30;9.90;75.10
39045;DHT22;52192;52.002;5.956;2023-01-13T07:58:58;9.90;74.90
39045;DHT22;52192;52.002;5.956;2023-01-13T08:01:24;9.90;75.00
39045;DHT22;52192;52.002;5.956;2023-01-13T08:03:52;9.90;74.80
39045;DHT22;52192;52.002;5.956;2023-01-13T08:06:18;10.00;74.70
39045;DHT22;52192;52.002;5.956;2023-01-13T08:08:44;10.00;74.60
39045;DHT22;52192;52.002;5.956;2023-01-13T08:11:09;10.00;74.60
39045;DHT22;52192;52.002;5.956;2023-01-13T08:13:35;10.10;74.60
39045;DHT22;52192;52.002;5.956;2023-01-13T08:16:06;10.10;74.20
39045;DHT22;52192;52.002;5.956;2023-01-13T08:18:33;10.10;74.10
39045;DHT22;52192;52.002;5.956;2023-01-13T08:21:05;10.10;74.30
39045;DHT22;52192;52.002;5.956;2023-01-13T08:23:32;10.10;74.20
39045;DHT22;52192;52.002;5.956;2023-01-13T08:26:03;10.10;74.00
39045;DHT22;52192;52.002;5.956;2023-01-13T08:28:30;10.10;74.00
39045;DHT22;52192;52.002;5.956;2023-01-13T08:31:01;10.10;74.10
39045;DHT22;52192;52.002;5.956;2023-01-13T08:33:28;10.10;74.20
39045;DHT22;52192;52.002;5.956;2023-01-13T08:35:54;10.10;74.20
39045;DHT22;52192;52.002;5.956;2023-01-13T08:38:21;10.10;74.00
39045;DHT22;52192;52.002;5.956;2023-01-13T08:40:47;10.10;74.20
39045;DHT22;52192;52.002;5.956;2023-01-13T08:43:12;10.10;73.90
39045;DHT22;52192;52.002;5.956;2023-01-13T08:45:38;10.10;74.00
39045;DHT22;52192;52.002;5.956;2023-01-13T08:48:04;10.10;73.90
39045;DHT22;52192;52.002;5.956;2023-01-13T08:50:30;10.10;74.00
39045;DHT22;52192;52.002;5.956;2023-01-13T08:52:56;10.20;73.90
39045;DHT22;52192;52.002;5.956;2023-01-13T08:55:22;10.10;73.80
39045;DHT22;52192;52.002;5.956;2023-01-13T08:57:47;10.10;73.90
39045;DHT22;52192;52.002;5.956;2023-01-13T09:00:13;10.20;73.90
39045;DHT22;52192;52.002;5.956;2023-01-13T09:02:41;10.20;74.10
39045;DHT22;52192;52.002;5.956;2023-01-13T09:05:08;10.20;74.00
39045;DHT22;52192;52.002;5.956;2023-01-13T09:07:36;10.20;74.10
39045;DHT22;52192;52.002;5.956;2023-01-13T09:10:04;10.20;73.90
39045;DHT22;52192;52.002;5.956;2023-01-13T09:12:30;10.20;74.20
39045;DHT22;52192;52.002;5.956;2023-01-13T09:15:14;10.20;73.90
39045;DHT22;52192;52.002;5.956;2023-01-13T09:17:43;10.20;74.10
39045;DHT22;52192;52.002;5.956;2023-01-13T09:20:10;10.20;74.50
39045;DHT22;52192;52.002;5.956;2023-01-13T09:22:36;10.10;75.00
39045;DHT22;52192;52.002;5.956;2023-01-13T09:25:02;10.10;75.50
39045;DHT22;52192;52.002;5.956;2023-01-13T09:27:28;10.10;76.20
39045;DHT22;52192;52.002;5.956;2023-01-13T09:29:54;10.10;76.50
39045;DHT22;52192;52.002;5.956;2023-01-13T09:32:19;10.10;76.70
39045;DHT22;52192;52.002;5.956;2023-01-13T09:34:45;10.00;76.60
39045;DHT22;52192;52.002;5.956;2023-01-13T09:37:28;10.10;76.40
39045;DHT22;52192;52.002;5.956;2023-01-13T09:39:55;10.10;75.90
39045;DHT22;52192;52.002;5.956;2023-01-13T09:42:40;10.10;75.90
39045;DHT22;52192;52.002;5.956;2023-01-13T09:45:31;10.10;75.90
39045;DHT22;52192;52.002;5.956;2023-01-13T09:53:24;10.10;76.20
39045;DHT22;52192;52.002;5.956;2023-01-13T09:55:51;10.10;76.60
39045;DHT22;52192;52.002;5.956;2023-01-13T09:58:18;10.10;77.00
39045;DHT22;52192;52.002;5.956;2023-01-13T10:00:54;10.10;77.30
39045;DHT22;52192;52.002;5.956;2023-01-13T10:03:30;10.00;77.70
39045;DHT22;52192;52.002;5.956;2023-01-13T10:06:38;9.90;78.20
39045;DHT22;52192;52.002;5.956;2023-01-13T10:08:46;9.90;78.70
39045;DHT22;52192;52.002;5.956;2023-01-13T10:11:19;9.90;79.20
39045;DHT22;52192;52.002;5.956;2023-01-13T10:14:15;9.90;79.70
39045;DHT22;52192;52.002;5.956;2023-01-13T10:16:59;9.80;80.00
39045;DHT22;52192;52.002;5.956;2023-01-13T10:27:38;9.80;81.10
39045;DHT22;52192;52.002;5.956;2023-01-13T10:30:32;9.70;81.40
39045;DHT22;52192;52.002;5.956;2023-01-13T10:33:00;9.70;81.60
39045;DHT22;52192;52.002;5.956;2023-01-13T10:35:49;9.60;81.30
39045;DHT22;52192;52.002;5.956;2023-01-13T10:40:52;9.70;81.60
39045;DHT22;52192;52.002;5.956;2023-01-13T10:43:18;9.70;81.60
39045;DHT22;52192;52.002;5.956;2023-01-13T10:46:05;9.70;81.50
39045;DHT22;52192;52.002;5.956;2023-01-13T10:48:51;9.80;81.50
39045;DHT22;52192;52.002;5.956;2023-01-13T10:56:36;9.80;81.20
39045;DHT22;52192;52.002;5.956;2023-01-13T10:59:13;9.90;81.10
39045;DHT22;52192;52.002;5.956;2023-01-13T11:01:41;10.00;80.80
39045;DHT22;52192;52.002;5.956;2023-01-13T11:04:35;9.90;80.60
39045;DHT22;52192;52.002;5.956;2023-01-13T11:07:04;10.00;80.40
39045;DHT22;52192;52.002;5.956;2023-01-13T11:09:31;10.00;80.50
39045;DHT22;52192;52.002;5.956;2023-01-13T11:11:57;10.00;80.60
39045;DHT22;52192;52.002;5.956;2023-01-13T11:14:37;10.00;81.00
39045;DHT22;52192;52.002;5.956;2023-01-13T11:19:56;10.00;81.50
39045;DHT22;52192;52.002;5.956;2023-01-13T11:22:28;9.90;82.00
39045;DHT22;52192;52.002;5.956;2023-01-13T11:24:59;9.70;82.50
39045;DHT22;52192;52.002;5.956;2023-01-13T11:30:02;9.70;83.40
39045;DHT22;52192;52.002;5.956;2023-01-13T11:32:43;9.60;83.70
39045;DHT22;52192;52.002;5.956;2023-01-13T11:35:17;9.70;83.70
39045;DHT22;52192;52.002;5.956;2023-01-13T11:37:52;9.80;83.60
39045;DHT22;52192;52.002;5.956;2023-01-13T11:40:30;9.80;83.40
39045;DHT22;52192;52.002;5.956;2023-01-13T11:43:09;9.90;83.30
39045;DHT22;52192;52.002;5.956;2023-01-13T11:48:14;10.00;83.00
39045;DHT22;52192;52.002;5.956;2023-01-13T11:56:24;10.10;82.70
39045;DHT22;52192;52.002;5.956;2023-01-13T12:02:00;10.10;82.40
39045;DHT22;52192;52.002;5.956;2023-01-13T12:04:43;10.00;82.40
39045;DHT22;52192;52.002;5.956;2023-01-13T12:10:23;10.00;82.40
39045;DHT22;52192;52.002;5.956;2023-01-13T12:18:26;10.10;82.10
39045;DHT22;52192;52.002;5.956;2023-01-13T12:26:16;10.10;82.50
39045;DHT22;52192;52.002;5.956;2023-01-13T12:31:17;10.10;82.50
39045;DHT22;52192;52.002;5.956;2023-01-13T12:39:44;10.10;82.80
39045;DHT22;52192;52.002;5.956;2023-01-13T12:47:41;10.00;82.50
39045;DHT22;52192;52.002;5.956;2023-01-13T12:50:37;9.90;82.60
39045;DHT22;52192;52.002;5.956;2023-01-13T12:53:34;9.90;82.80
39045;DHT22;52192;52.002;5.956;2023-01-13T13:01:44;9.80;83.30
39045;DHT22;52192;52.002;5.956;2023-01-13T13:04:17;9.80;83.40
39045;DHT22;52192;52.002;5.956;2023-01-13T13:06:51;9.90;83.60
39045;DHT22;52192;52.002;5.956;2023-01-13T13:09:32;9.90;83.40
39045;DHT22;52192;52.002;5.956;2023-01-13T13:15:21;10.00;83.10
39045;DHT22;52192;52.002;5.956;2023-01-13T13:20:59;10.10;82.80
39045;DHT22;52192;52.002;5.956;2023-01-13T13:34:29;10.20;81.90
39045;DHT22;52192;52.002;5.956;2023-01-13T13:39:48;10.30;81.40
39045;DHT22;52192;52.002;5.956;2023-01-13T13:42:42;10.20;80.90
39045;DHT22;52192;52.002;5.956;2023-01-13T13:45:28;10.30;80.70
39045;DHT22;52192;52.002;5.956;2023-01-13T13:48:25;10.30;80.50
39045;DHT22;52192;52.002;5.956;2023-01-13T13:50:56;10.30;79.90
39045;DHT22;52192;52.002;5.956;2023-01-13T13:53:29;10.30;79.60
39045;DHT22;52192;52.002;5.956;2023-01-13T13:55:58;10.40;79.70
39045;DHT22;52192;52.002;5.956;2023-01-13T13:58:26;10.40;78.90
39045;DHT22;52192;52.002;5.956;2023-01-13T14:00:53;10.50;78.90
39045;DHT22;52192;52.002;5.956;2023-01-13T14:03:38;10.50;78.10
39045;DHT22;52192;52.002;5.956;2023-01-13T14:06:05;10.50;78.00
39045;DHT22;52192;52.002;5.956;2023-01-13T14:08:37;10.50;77.70
39045;DHT22;52192;52.002;5.956;2023-01-13T14:11:32;10.50;77.30
39045;DHT22;52192;52.002;5.956;2023-01-13T14:14:12;10.50;76.60
39045;DHT22;52192;52.002;5.956;2023-01-13T14:16:39;10.50;76.80
39045;DHT22;52192;52.002;5.956;2023-01-13T14:19:05;10.50;77.00
39045;DHT22;52192;52.002;5.956;2023-01-13T14:21:30;10.50;76.80
39045;DHT22;52192;52.002;5.956;2023-01-13T14:24:08;10.60;76.90
39045;DHT22;52192;52.002;5.956;2023-01-13T14:26:37;10.60;76.90
39045;DHT22;52192;52.002;5.956;2023-01-13T14:29:04;10.60;76.90
39045;DHT22;52192;52.002;5.956;2023-01-13T14:31:31;10.60;76.70
39045;DHT22;52192;52.002;5.956;2023-01-13T14:33:59;10.60;76.80
39045;DHT22;52192;52.002;5.956;2023-01-13T14:36:36;10.60;76.80
39045;DHT22;52192;52.002;5.956;2023-01-13T14:41:31;10.60;76.50
39045;DHT22;52192;52.002;5.956;2023-01-13T14:44:00;10.60;76.40
39045;DHT22;52192;52.002;5.956;2023-01-13T14:46:40;10.60;76.70
39045;DHT22;52192;52.002;5.956;2023-01-13T14:49:24;10.60;76.70
39045;DHT22;52192;52.002;5.956;2023-01-13T14:51:52;10.60;76.60
39045;DHT22;52192;52.002;5.956;2023-01-13T14:59:47;10.60;76.20
39045;DHT22;52192;52.002;5.956;2023-01-13T15:03:04;10.60;76.40
39045;DHT22;52192;52.002;5.956;2023-01-13T15:05:33;10.70;76.20
39045;DHT22;52192;52.002;5.956;2023-01-13T15:08:27;10.60;76.40
39045;DHT22;52192;52.002;5.956;2023-01-13T15:10:59;10.60;76.10
39045;DHT22;52192;52.002;5.956;2023-01-13T15:15:59;10.60;76.40
39045;DHT22;52192;52.002;5.956;2023-01-13T15:18:25;10.70;76.30
39045;DHT22;52192;52.002;5.956;2023-01-13T15:20:51;10.70;75.90
39045;DHT22;52192;52.002;5.956;2023-01-13T15:23:18;10.70;75.80
39045;DHT22;52192;52.002;5.956;2023-01-13T15:25:46;10.70;75.80
39045;DHT22;52192;52.002;5.956;2023-01-13T15:28:23;10.70;75.70
39045;DHT22;52192;52.002;5.956;2023-01-13T15:30:51;10.70;75.80
39045;DHT22;52192;52.002;5.956;2023-01-13T15:33:17;10.70;75.50
39045;DHT22;52192;52.002;5.956;2023-01-13T15:35:49;10.70;75.60
39045;DHT22;52192;52.002;5.956;2023-01-13T15:38:18;10.70;75.60
39045;DHT22;52192;52.002;5.956;2023-01-13T15:40:45;10.80;75.70
39045;DHT22;52192;52.002;5.956;2023-01-13T15:43:15;10.70;75.40
39045;DHT22;52192;52.002;5.956;2023-01-13T15:46:01;10.70;75.30
39045;DHT22;52192;52.002;5.956;2023-01-13T15:48:47;10.80;75.50
39045;DHT22;52192;52.002;5.956;2023-01-13T15:51:13;10.70;74.90
39045;DHT22;52192;52.002;5.956;2023-01-13T15:53:39;10.70;74.80
39045;DHT22;52192;52.002;5.956;2023-01-13T15:56:16;10.70;75.00
39045;DHT22;52192;52.002;5.956;2023-01-13T15:58:44;10.80;74.60
39045;DHT22;52192;52.002;5.956;2023-01-13T16:01:10;10.70;74.70
39045;DHT22;52192;52.002;5.956;2023-01-13T16:03:37;10.70;74.60
39045;DHT22;52192;52.002;5.956;2023-01-13T16:06:10;10.70;74.50
39045;DHT22;52192;52.002;5.956;2023-01-13T16:08:36;10.70;74.80
39045;DHT22;52192;52.002;5.956;2023-01-13T16:11:02;10.60;74.80
39045;DHT22;52192;52.002;5.956;2023-01-13T16:13:28;10.60;74.70
39045;DHT22;52192;52.002;5.956;2023-01-13T16:15:53;10.70;74.60
39045;DHT22;52192;52.002;5.956;2023-01-13T16:18:21;10.60;74.20
39045;DHT22;52192;52.002;5.956;2023-01-13T16:20:49;10.60;74.10
39045;DHT22;52192;52.002;5.956;2023-01-13T16:23:21;10.60;74.40
39045;DHT22;52192;52.002;5.956;2023-01-13T16:25:47;10.60;74.20
39045;DHT22;52192;52.002;5.956;2023-01-13T16:28:21;10.60;74.30
39045;DHT22;52192;52.002;5.956;2023-01-13T16:30:48;10.60;74.90
39045;DHT22;52192;52.002;5.956;2023-01-13T16:33:14;10.60;74.50
39045;DHT22;52192;52.002;5.956;2023-01-13T16:35:40;10.60;74.70
39045;DHT22;52192;52.002;5.956;2023-01-13T16:38:08;10.60;74.70
39045;DHT22;52192;52.002;5.956;2023-01-13T16:40:35;10.60;74.50
39045;DHT22;52192;52.002;5.956;2023-01-13T16:43:02;10.50;74.60
39045;DHT22;52192;52.002;5.956;2023-01-13T16:45:31;10.60;74.60
39045;DHT22;52192;52.002;5.956;2023-01-13T16:47:57;10.60;74.70
39045;DHT22;52192;52.002;5.956;2023-01-13T16:50:36;10.60;74.60
39045;DHT22;52192;52.002;5.956;2023-01-13T16:53:04;10.60;74.40
39045;DHT22;52192;52.002;5.956;2023-01-13T16:55:31;10.60;74.50
39045;DHT22;52192;52.002;5.956;2023-01-13T16:57:56;10.60;74.50
39045;DHT22;52192;52.002;5.956;2023-01-13T17:00:22;10.60;74.60
39045;DHT22;52192;52.002;5.956;2023-01-13T17:02:48;10.60;74.50
39045;DHT22;52192;52.002;5.956;2023-01-13T17:05:14;10.60;74.60
39045;DHT22;52192;52.002;5.956;2023-01-13T17:07:41;10.50;74.50
39045;DHT22;52192;52.002;5.956;2023-01-13T17:10:11;10.50;74.80
39045;DHT22;52192;52.002;5.956;2023-01-13T17:12:37;10.50;75.00
39045;DHT22;52192;52.002;5.956;2023-01-13T17:15:02;10.50;75.00
39045;DHT22;52192;52.002;5.956;2023-01-13T17:17:28;10.50;75.00
39045;DHT22;52192;52.002;5.956;2023-01-13T17:19:54;10.50;74.90
39045;DHT22;52192;52.002;5.956;2023-01-13T17:22:20;10.50;75.10
39045;DHT22;52192;52.002;5.956;2023-01-13T17:24:46;10.50;75.00
39045;DHT22;52192;52.002;5.956;2023-01-13T17:27:12;10.50;74.90
39045;DHT22;52192;52.002;5.956;2023-01-13T17:29:38;10.60;75.10
39045;DHT22;52192;52.002;5.956;2023-01-13T17:32:04;10.50;75.10
39045;DHT22;52192;52.002;5.956;2023-01-13T17:34:29;10.60;75.30
39045;DHT22;52192;52.002;5.956;2023-01-13T17:36:56;10.60;75.90
39045;DHT22;52192;52.002;5.956;2023-01-13T17:39:23;10.60;75.60
39045;DHT22;52192;52.002;5.956;2023-01-13T17:41:50;10.60;76.30
39045;DHT22;52192;52.002;5.956;2023-01-13T17:44:19;10.50;77.00
39045;DHT22;52192;52.002;5.956;2023-01-13T17:46:45;10.40;77.80
39045;DHT22;52192;52.002;5.956;2023-01-13T17:49:13;10.30;78.70
39045;DHT22;52192;52.002;5.956;2023-01-13T17:51:39;10.20;79.50
39045;DHT22;52192;52.002;5.956;2023-01-13T17:54:06;10.00;79.40
39045;DHT22;52192;52.002;5.956;2023-01-13T17:56:32;9.70;79.20
39045;DHT22;52192;52.002;5.956;2023-01-13T17:58:57;9.50;79.80
39045;DHT22;52192;52.002;5.956;2023-01-13T18:01:23;9.40;80.10
39045;DHT22;52192;52.002;5.956;2023-01-13T18:03:51;9.30;80.60
39045;DHT22;52192;52.002;5.956;2023-01-13T18:06:22;9.30;81.00
39045;DHT22;52192;52.002;5.956;2023-01-13T18:08:48;9.30;81.30
39045;DHT22;52192;52.002;5.956;2023-01-13T18:11:15;9.30;81.40
39045;DHT22;52192;52.002;5.956;2023-01-13T18:13:49;9.30;81.60
39045;DHT22;52192;52.002;5.956;2023-01-13T18:16:18;9.20;81.60
39045;DHT22;52192;52.002;5.956;2023-01-13T18:18:45;9.10;81.70
39045;DHT22;52192;52.002;5.956;2023-01-13T18:21:20;9.10;81.90